Aeroporto :
LOGIN :

Iscrizione | Disclaimer

   EN    FR    IT 

 










Sommario :    VFR   VFR Marginale   IFR   IFR Intensivo   IFR Molto Intensivo
Visibilità : 
Base nubi : 
>= 8 km
>= 3000ft
5 / 8 km
1000 / 3000 ft
1500m / 5 km
500 / 1000 ft
800 / 1500m
200 / 500 ft
< 800m
< 200 ft
Simboli :   Temporali  Nebbia  Neve Forte  Precipitazioni Forti  Vento > 20 kt
SIGMETs :   Varie  Temporali  Ghiacco  Turbolenza  Onda orograficha  Ceneri Vulcaniche






- Altitudine del aeroporto : 255 ft


ENGC - Gullfaks C oil platform

ULTIMO METAR :
  • 041750Z 16035KT 6000 -RA BKN010 OVC015 04/03 Q1013 W05/S5

METARs OBSOLETI :
  • 041720Z 16033KT 7000 -RA BKN010 04/03 Q1013 W06/S5
  • 041650Z 16030KT 8000 -RA SCT010 BKN015 04/03 Q1013 W06/S4
  • 041620Z 15028KT 7000 RA OVC012 04/02 Q1013 W05/S4
  • 041550Z 15029KT 9999 -RA BKN013 04/02 Q1014 RERA W05/S4
  • 041520Z 15027KT 9999 -RA BKN013 03/01 Q1014 W05/S4

TAF TAF ENGC
Valido dal 04 a 18 ore il 05 a 18 ore UTC


0418/0518 16030KT 9999 -RA SCT010 BKN020
TEMPO 0418/0422 4000 RA BKN009
BECMG 0420/0422 19020KT
PROB40 0422/0502 3000 BR BKN005
BECMG 0510/0512 18035KT



MetMap, La meteo Aeronautica in un colpo d'occhio ! - Copyright ORBIFLY Dicembre 2007 - Disclaimer

ORBIFLY MET'MAP TEAM :

Programmazione e sviluppo : Alexandra Zaïnal
Concezione : Baudouin d'Aumeries
Aiuto per la programmazione : Marc-Olivier Méhu
Supporto tecnico e logistico : Manuel Goepfert
Aiuto per la traduzione : Arnaldo La Scala

Contatto : metmap@orbifly.com




FONTI E CREDITI :

   NOAA